createdAt,value
2023-02-09T00:01:26.545Z,28.97
2023-02-09T00:03:55.092Z,25.93
2023-02-09T00:06:26.215Z,26.03
2023-02-09T00:08:54.586Z,24.13
2023-02-09T00:11:46.384Z,22.70
2023-02-09T00:14:14.778Z,22.47
2023-02-09T00:16:43.864Z,26.60
2023-02-09T00:19:12.174Z,24.60
2023-02-09T00:21:40.272Z,25.33
2023-02-09T00:24:10.749Z,25.47
2023-02-09T00:26:40.902Z,26.50
2023-02-09T00:29:10.073Z,26.33
2023-02-09T00:31:38.596Z,24.87
2023-02-09T00:34:07.373Z,23.77
2023-02-09T00:36:35.809Z,21.97
2023-02-09T00:39:03.868Z,24.93
2023-02-09T00:41:49.183Z,23.87
2023-02-09T00:44:18.646Z,23.60
2023-02-09T00:46:46.686Z,24.40
2023-02-09T00:49:14.656Z,25.93
2023-02-09T00:51:42.825Z,25.97
2023-02-09T00:54:10.824Z,24.53
2023-02-09T00:56:38.768Z,23.97
2023-02-09T00:59:06.782Z,24.50
2023-02-09T01:01:36.456Z,24.37
2023-02-09T01:04:04.490Z,30.40
2023-02-09T01:06:32.569Z,36.03
2023-02-09T01:09:00.954Z,29.23
2023-02-09T01:11:30.025Z,26.50
2023-02-09T01:13:59.636Z,28.53
2023-02-09T01:16:30.500Z,28.03
2023-02-09T01:19:02.152Z,27.40
2023-02-09T01:21:31.069Z,25.00
2023-02-09T01:23:59.508Z,24.93
2023-02-09T01:26:27.479Z,25.10
2023-02-09T01:28:55.727Z,26.10
2023-02-09T01:31:26.278Z,26.37
2023-02-09T01:33:55.718Z,23.37
2023-02-09T01:36:25.086Z,23.47
2023-02-09T01:38:55.293Z,24.90
2023-02-09T01:41:23.555Z,27.73
2023-02-09T01:43:57.911Z,39.43
2023-02-09T01:46:27.420Z,31.53
2023-02-09T01:49:03.036Z,31.07
2023-02-09T01:51:36.018Z,25.67
2023-02-09T01:54:08.793Z,29.07
2023-02-09T01:56:40.133Z,28.60
2023-02-09T01:59:09.136Z,24.77
2023-02-09T02:01:37.843Z,25.47
2023-02-09T02:04:06.640Z,25.67
2023-02-09T02:06:36.377Z,28.10
2023-02-09T02:09:10.077Z,28.13
2023-02-09T02:11:38.826Z,31.10
2023-02-09T02:14:07.082Z,25.63
2023-02-09T02:16:50.963Z,27.43
2023-02-09T02:19:46.228Z,23.20
2023-02-09T02:22:36.496Z,22.50
2023-02-09T02:25:40.081Z,22.87
2023-02-09T02:28:25.552Z,20.63
2023-02-09T02:31:10.094Z,21.10
2023-02-09T02:33:45.205Z,20.37
2023-02-09T02:36:24.762Z,21.17
2023-02-09T02:38:58.322Z,21.00
2023-02-09T02:41:53.641Z,19.90
2023-02-09T02:44:21.658Z,22.17
2023-02-09T02:46:54.321Z,21.67
2023-02-09T02:49:30.378Z,21.67
2023-02-09T02:52:04.588Z,21.30
2023-02-09T02:54:36.338Z,20.77
2023-02-09T02:57:08.085Z,21.07
2023-02-09T02:59:43.126Z,20.57
2023-02-09T03:02:14.617Z,19.53
2023-02-09T03:04:46.984Z,20.80
2023-02-09T03:07:17.927Z,20.17
2023-02-09T03:09:55.337Z,20.27
2023-02-09T03:12:33.460Z,19.00
2023-02-09T03:15:20.155Z,20.93
2023-02-09T03:17:52.571Z,19.37
2023-02-09T03:20:27.343Z,18.90
2023-02-09T03:22:58.830Z,18.97
2023-02-09T03:25:33.159Z,19.43
2023-02-09T03:28:06.869Z,22.60
2023-02-09T03:30:36.287Z,25.83
2023-02-09T03:33:05.500Z,21.67
2023-02-09T03:35:40.249Z,21.63
2023-02-09T03:38:08.377Z,22.63
2023-02-09T03:40:36.581Z,22.87
2023-02-09T03:43:04.528Z,21.87
2023-02-09T03:45:32.521Z,21.83
2023-02-09T03:48:00.786Z,22.03
2023-02-09T03:50:29.833Z,19.83
2023-02-09T03:52:59.369Z,20.10
2023-02-09T03:55:27.544Z,20.17
2023-02-09T03:57:55.587Z,21.00
2023-02-09T04:00:23.727Z,22.80
2023-02-09T04:02:51.754Z,22.20
2023-02-09T04:05:19.890Z,20.90
2023-02-09T04:07:48.072Z,21.57
2023-02-09T04:10:17.483Z,22.83
2023-02-09T04:12:45.641Z,20.60
2023-02-09T04:15:13.582Z,21.57
2023-02-09T04:17:41.570Z,20.50
2023-02-09T04:20:11.630Z,21.70
2023-02-09T04:22:39.963Z,20.53
2023-02-09T04:25:08.350Z,22.20
2023-02-09T04:27:38.409Z,22.47
2023-02-09T04:30:07.139Z,22.37
2023-02-09T04:32:35.323Z,20.90
2023-02-09T04:35:03.273Z,21.20
2023-02-09T04:37:31.243Z,22.03
2023-02-09T04:39:59.216Z,23.63
2023-02-09T04:42:27.181Z,21.63
2023-02-09T04:44:56.484Z,19.17
2023-02-09T04:47:24.505Z,20.17
2023-02-09T04:49:52.445Z,20.60
2023-02-09T04:52:20.425Z,19.93
2023-02-09T04:54:48.585Z,20.03
2023-02-09T04:57:33.837Z,21.10
2023-02-09T05:00:03.219Z,21.93
2023-02-09T05:02:31.204Z,21.57
2023-02-09T05:04:59.216Z,27.43
2023-02-09T05:07:27.476Z,23.53
2023-02-09T05:09:55.421Z,35.93
2023-02-09T05:12:23.510Z,36.67
2023-02-09T05:14:51.589Z,29.40
2023-02-09T05:17:21.461Z,25.67
2023-02-09T05:19:50.330Z,30.90
2023-02-09T05:22:18.435Z,30.00
2023-02-09T05:24:46.419Z,30.27
2023-02-09T05:27:14.595Z,30.50
2023-02-09T05:29:42.549Z,28.53
2023-02-09T05:32:10.631Z,26.23
2023-02-09T05:34:40.016Z,25.70
2023-02-09T05:37:07.933Z,26.23
2023-02-09T05:39:35.941Z,28.27
2023-02-09T05:42:19.059Z,23.80
2023-02-09T05:44:48.660Z,26.57
2023-02-09T05:47:19.560Z,26.40
2023-02-09T05:49:49.287Z,25.30
2023-02-09T05:52:17.753Z,26.27
2023-02-09T05:54:47.834Z,23.23
2023-02-09T05:57:16.309Z,25.93
2023-02-09T05:59:44.529Z,26.43
2023-02-09T06:02:12.788Z,23.90
2023-02-09T06:04:40.856Z,26.13
2023-02-09T06:07:11.953Z,28.43
2023-02-09T06:09:40.135Z,27.33
2023-02-09T06:12:08.060Z,26.83
2023-02-09T06:14:36.022Z,26.73
2023-02-09T06:17:04.150Z,31.77
2023-02-09T06:19:32.069Z,30.50
2023-02-09T06:22:00.111Z,29.97
2023-02-09T06:24:29.518Z,32.80
2023-02-09T06:26:57.465Z,38.47
2023-02-09T06:29:25.411Z,34.17
2023-02-09T06:31:53.740Z,31.83
2023-02-09T06:34:21.764Z,32.23
2023-02-09T06:36:49.764Z,28.13
2023-02-09T06:39:17.696Z,26.70
2023-02-09T06:41:46.994Z,24.67
2023-02-09T06:44:15.153Z,24.80
2023-02-09T06:46:43.274Z,23.37
2023-02-09T06:49:11.208Z,24.37
2023-02-09T06:51:39.293Z,22.90
2023-02-09T06:54:07.669Z,27.57
2023-02-09T06:56:35.735Z,29.17
2023-02-09T06:59:05.197Z,23.87
2023-02-09T07:01:33.165Z,24.90
2023-02-09T07:04:01.127Z,27.00
2023-02-09T07:06:29.185Z,25.87
2023-02-09T07:08:57.134Z,24.07
2023-02-09T07:11:25.192Z,26.50
2023-02-09T07:13:53.112Z,25.07
2023-02-09T07:16:22.540Z,25.50
2023-02-09T07:18:50.506Z,26.53
2023-02-09T07:21:21.415Z,24.10
2023-02-09T07:23:50.864Z,24.90
2023-02-09T07:26:19.625Z,24.83
2023-02-09T07:28:47.731Z,25.53
2023-02-09T07:31:17.535Z,27.37
2023-02-09T07:33:47.594Z,30.80
2023-02-09T07:36:17.810Z,28.03
2023-02-09T07:38:46.546Z,26.70
2023-02-09T07:41:17.491Z,29.40
2023-02-09T07:43:45.691Z,25.57
2023-02-09T07:46:16.759Z,26.13
2023-02-09T07:48:46.338Z,24.50
2023-02-09T07:51:15.377Z,25.47
2023-02-09T07:53:43.505Z,29.23
2023-02-09T07:56:11.466Z,26.27
2023-02-09T07:58:39.548Z,23.10
2023-02-09T08:01:09.779Z,23.73
2023-02-09T08:03:38.583Z,22.27
2023-02-09T08:06:19.747Z,25.43
2023-02-09T08:08:48.972Z,22.93
2023-02-09T08:11:18.428Z,25.07
2023-02-09T08:13:47.299Z,26.60
2023-02-09T08:16:18.937Z,26.77
2023-02-09T08:18:51.321Z,25.97
2023-02-09T08:21:21.600Z,24.80
2023-02-09T08:23:53.776Z,33.30
2023-02-09T08:26:21.793Z,18.40
2023-02-09T08:28:49.969Z,31.07
2023-02-09T08:31:19.597Z,28.83
2023-02-09T08:33:48.910Z,29.00
2023-02-09T08:36:18.920Z,26.30
2023-02-09T08:38:49.094Z,29.63
2023-02-09T08:41:18.124Z,27.17
2023-02-09T08:43:49.042Z,29.87
2023-02-09T08:46:17.365Z,26.23
2023-02-09T08:48:46.784Z,23.30
2023-02-09T08:51:17.648Z,25.27
2023-02-09T08:53:52.562Z,29.00
2023-02-09T08:56:23.346Z,28.40
2023-02-09T08:58:51.318Z,28.67
2023-02-09T09:01:19.366Z,24.17
2023-02-09T09:03:47.662Z,25.00
2023-02-09T09:06:15.689Z,22.63
2023-02-09T09:08:43.664Z,24.67
2023-02-09T09:11:14.723Z,23.00
2023-02-09T09:13:44.382Z,24.77
2023-02-09T09:16:16.339Z,23.37
2023-02-09T09:18:45.431Z,22.50
2023-02-09T09:21:13.967Z,23.87
2023-02-09T09:23:41.879Z,18.83
2023-02-09T09:26:10.310Z,19.50
2023-02-09T09:28:38.462Z,20.97
2023-02-09T09:31:11.064Z,16.80
2023-02-09T09:33:39.510Z,16.53
2023-02-09T09:36:08.774Z,23.90
2023-02-09T09:38:38.171Z,34.90
2023-02-09T09:41:07.766Z,20.67
2023-02-09T09:43:38.731Z,23.00
2023-02-09T09:46:16.263Z,19.87
2023-02-09T09:48:47.301Z,19.60
2023-02-09T09:51:21.642Z,10.23
2023-02-09T09:53:51.816Z,14.80
2023-02-09T09:56:22.110Z,20.93
2023-02-09T09:58:51.713Z,16.17
2023-02-09T10:01:23.411Z,19.83
2023-02-09T10:03:51.458Z,18.67
2023-02-09T10:06:21.388Z,21.17
2023-02-09T10:08:55.075Z,14.67
2023-02-09T10:11:28.634Z,19.37
2023-02-09T10:13:58.080Z,26.03
2023-02-09T10:16:29.563Z,23.43
2023-02-09T10:18:58.932Z,21.63
2023-02-09T10:21:29.379Z,22.07
2023-02-09T10:24:12.530Z,16.37
2023-02-09T10:26:42.867Z,21.37
2023-02-09T10:29:24.564Z,13.70
2023-02-09T10:32:01.280Z,20.90
2023-02-09T10:34:34.423Z,26.07
2023-02-09T10:37:18.148Z,13.90
2023-02-09T10:39:47.486Z,18.27
2023-02-09T10:42:20.729Z,14.43
2023-02-09T10:44:51.284Z,16.03
2023-02-09T10:47:31.806Z,14.53
2023-02-09T10:50:09.093Z,15.53
2023-02-09T10:52:40.064Z,16.30
2023-02-09T10:55:17.297Z,15.53
2023-02-09T10:57:45.217Z,13.93
2023-02-09T11:00:34.793Z,19.67
2023-02-09T11:03:04.393Z,19.00
2023-02-09T11:05:34.992Z,15.67
2023-02-09T11:08:13.810Z,21.03
2023-02-09T11:10:46.149Z,19.37
2023-02-09T11:13:23.486Z,20.97
2023-02-09T11:16:25.565Z,21.77
2023-02-09T11:19:00.542Z,19.80
2023-02-09T11:21:39.007Z,18.90
2023-02-09T11:24:14.056Z,21.33
2023-02-09T11:26:48.762Z,20.07
2023-02-09T11:29:25.770Z,22.40
2023-02-09T11:32:19.786Z,20.37
2023-02-09T11:35:11.241Z,21.20
2023-02-09T11:37:48.662Z,19.53
2023-02-09T11:40:36.584Z,20.13
2023-02-09T11:43:15.584Z,24.90
2023-02-09T11:45:45.745Z,30.77
2023-02-09T11:48:18.686Z,27.23
2023-02-09T11:50:57.842Z,25.43
2023-02-09T11:53:33.014Z,17.53
2023-02-09T11:56:03.777Z,20.47
2023-02-09T11:58:44.093Z,25.63
2023-02-09T12:01:29.910Z,21.77
2023-02-09T12:04:06.070Z,25.37
2023-02-09T12:06:40.726Z,23.63
2023-02-09T12:09:28.048Z,21.83
2023-02-09T12:12:06.264Z,9.10
2023-02-09T12:14:59.536Z,23.90
2023-02-09T12:17:43.829Z,18.03
2023-02-09T12:20:30.968Z,20.87
2023-02-09T12:23:07.892Z,19.33
2023-02-09T12:25:51.569Z,25.17
2023-02-09T12:28:41.507Z,21.63
2023-02-09T12:31:13.267Z,14.80
2023-02-09T12:33:55.378Z,15.30
2023-02-09T12:36:30.173Z,16.80
2023-02-09T12:39:06.299Z,19.33
2023-02-09T12:42:07.632Z,18.63
2023-02-09T12:44:40.197Z,22.43
2023-02-09T12:47:41.719Z,23.17
2023-02-09T12:50:22.968Z,21.13
2023-02-09T12:53:43.558Z,22.03
2023-02-09T12:56:33.945Z,14.00
2023-02-09T12:59:18.401Z,13.53
2023-02-09T13:02:15.952Z,10.93
2023-02-09T13:05:00.172Z,13.40
2023-02-09T13:07:43.941Z,11.40
2023-02-09T13:10:25.581Z,15.27
2023-02-09T13:13:00.033Z,15.63
2023-02-09T13:15:34.400Z,22.20
2023-02-09T13:18:15.348Z,17.90
2023-02-09T13:21:10.113Z,17.93
2023-02-09T13:23:48.813Z,15.63
2023-02-09T13:26:23.083Z,13.30
2023-02-09T13:29:19.407Z,15.33
2023-02-09T13:31:57.342Z,11.70
2023-02-09T13:34:31.766Z,15.47
2023-02-09T13:37:10.931Z,16.03
2023-02-09T13:39:40.758Z,10.40
2023-02-09T13:42:21.200Z,9.83
2023-02-09T13:44:55.008Z,14.33
2023-02-09T13:47:23.559Z,10.13
2023-02-09T13:49:59.925Z,12.57
2023-02-09T13:52:32.942Z,15.80
2023-02-09T13:55:12.559Z,10.57
2023-02-09T13:57:43.481Z,17.77
2023-02-09T14:00:22.704Z,25.10
2023-02-09T14:02:54.628Z,15.03
2023-02-09T14:05:31.326Z,20.73
2023-02-09T14:07:59.652Z,14.47
2023-02-09T14:10:29.623Z,22.30
2023-02-09T14:13:02.884Z,20.07
2023-02-09T14:15:57.799Z,19.03
2023-02-09T14:18:32.131Z,16.33
2023-02-09T14:21:14.574Z,17.03
2023-02-09T14:23:44.603Z,25.13
2023-02-09T14:26:25.424Z,25.60
2023-02-09T14:28:56.148Z,17.40
2023-02-09T14:31:26.600Z,13.57
2023-02-09T14:33:57.561Z,14.53
2023-02-09T14:36:30.806Z,13.47
2023-02-09T14:39:11.025Z,15.17
2023-02-09T14:41:39.308Z,11.07
2023-02-09T14:44:20.475Z,12.43
2023-02-09T14:46:51.926Z,15.20
2023-02-09T14:49:21.025Z,13.27
2023-02-09T14:51:50.135Z,14.67
2023-02-09T14:54:24.897Z,14.03
2023-02-09T14:56:54.525Z,13.27
2023-02-09T14:59:23.761Z,14.83
2023-02-09T15:01:54.840Z,16.17
2023-02-09T15:04:23.267Z,10.37
2023-02-09T15:07:01.320Z,24.30
2023-02-09T15:09:34.983Z,17.07
2023-02-09T15:12:06.391Z,41.37
2023-02-09T15:14:38.978Z,57.10
2023-02-09T15:17:14.891Z,22.07
2023-02-09T15:19:43.057Z,54.90
2023-02-09T15:22:13.675Z,77.33
2023-02-09T15:24:42.459Z,47.20
2023-02-09T15:27:24.123Z,56.03
2023-02-09T15:29:52.620Z,29.27
2023-02-09T15:32:23.932Z,44.83
2023-02-09T15:34:52.830Z,19.60
2023-02-09T15:37:24.438Z,34.10
2023-02-09T15:39:55.767Z,20.03
2023-02-09T15:42:41.333Z,23.97
2023-02-09T15:45:37.156Z,24.53
2023-02-09T15:48:07.033Z,20.83
2023-02-09T15:50:36.542Z,18.10
2023-02-09T15:53:06.537Z,18.70
2023-02-09T15:55:36.224Z,19.00
2023-02-09T15:58:05.008Z,18.17
2023-02-09T16:00:32.959Z,19.87
2023-02-09T16:03:02.432Z,20.03
2023-02-09T16:05:31.830Z,20.80
2023-02-09T16:08:00.346Z,20.80
2023-02-09T16:10:30.584Z,33.40
2023-02-09T16:12:58.636Z,31.30
2023-02-09T16:15:28.127Z,22.70
2023-02-09T16:17:56.124Z,19.40
2023-02-09T16:20:26.006Z,22.57
2023-02-09T16:22:57.346Z,19.83
2023-02-09T16:25:27.137Z,20.93
2023-02-09T16:27:56.354Z,26.13
2023-02-09T16:30:26.727Z,52.47
2023-02-09T16:32:55.392Z,98.40
2023-02-09T16:35:25.383Z,83.23
2023-02-09T16:37:56.281Z,50.03
2023-02-09T16:40:27.892Z,58.40
2023-02-09T16:42:56.525Z,66.93
2023-02-09T16:45:24.755Z,54.47
2023-02-09T16:47:57.210Z,60.23
2023-02-09T16:50:33.101Z,43.77
2023-02-09T16:53:19.951Z,87.93
2023-02-09T16:55:49.598Z,68.03
2023-02-09T16:58:18.426Z,61.00
2023-02-09T17:00:46.774Z,55.33
2023-02-09T17:03:17.214Z,64.63
2023-02-09T17:05:48.057Z,62.70
2023-02-09T17:08:23.751Z,59.97
2023-02-09T17:10:54.267Z,59.77
2023-02-09T17:13:22.858Z,63.90
2023-02-09T17:15:54.085Z,69.53
2023-02-09T17:18:23.679Z,56.17
2023-02-09T17:20:55.855Z,61.80
2023-02-09T17:23:27.181Z,58.20
2023-02-09T17:25:55.968Z,51.50
2023-02-09T17:28:24.922Z,48.17
2023-02-09T17:30:56.357Z,51.37
2023-02-09T17:33:26.503Z,45.47
2023-02-09T17:36:24.326Z,43.20
2023-02-09T17:38:45.358Z,48.77
2023-02-09T17:41:16.265Z,50.30
2023-02-09T17:43:44.438Z,55.27
2023-02-09T17:46:13.291Z,39.80
2023-02-09T17:48:41.204Z,36.37
2023-02-09T17:51:15.376Z,32.97
2023-02-09T17:53:44.668Z,47.10
2023-02-09T17:56:16.323Z,63.77
2023-02-09T17:58:45.280Z,48.47
2023-02-09T18:01:26.092Z,47.83
2023-02-09T18:03:55.541Z,57.47
2023-02-09T18:06:33.586Z,56.90
2023-02-09T18:09:03.714Z,46.80
2023-02-09T18:11:56.708Z,43.37
2023-02-09T18:14:25.963Z,59.10
2023-02-09T18:16:55.187Z,58.20
2023-02-09T18:19:23.415Z,47.23
2023-02-09T18:21:53.195Z,51.77
2023-02-09T18:24:25.232Z,48.77
2023-02-09T18:26:53.343Z,44.13
2023-02-09T18:29:23.636Z,41.17
2023-02-09T18:31:52.032Z,22.50
2023-02-09T18:34:20.013Z,25.87
2023-02-09T18:36:47.929Z,37.83
2023-02-09T18:39:16.529Z,32.87
2023-02-09T18:41:48.412Z,30.40
2023-02-09T18:44:16.353Z,47.40
2023-02-09T18:46:44.352Z,41.90
2023-02-09T18:49:13.094Z,47.30
2023-02-09T18:51:41.029Z,41.57
2023-02-09T18:54:08.961Z,31.73
2023-02-09T18:56:36.892Z,40.57
2023-02-09T18:59:08.021Z,42.63
2023-02-09T19:01:36.688Z,27.57
2023-02-09T19:04:04.962Z,20.97
2023-02-09T19:06:35.382Z,16.70
2023-02-09T19:09:03.467Z,17.37
2023-02-09T19:11:31.533Z,16.83
2023-02-09T19:14:16.736Z,17.27
2023-02-09T19:16:46.056Z,15.90
2023-02-09T19:19:15.999Z,15.37
2023-02-09T19:21:43.914Z,11.47
2023-02-09T19:24:11.907Z,13.83
2023-02-09T19:26:39.906Z,13.57
2023-02-09T19:29:07.853Z,17.77
2023-02-09T19:31:35.804Z,14.40
2023-02-09T19:34:05.138Z,14.00
2023-02-09T19:36:33.744Z,13.30
2023-02-09T19:39:02.769Z,15.53
2023-02-09T19:41:30.696Z,14.43
2023-02-09T19:43:59.070Z,10.57
2023-02-09T19:46:27.072Z,12.33
2023-02-09T19:48:55.184Z,12.70
2023-02-09T19:51:24.596Z,12.30
2023-02-09T19:53:52.526Z,13.33
2023-02-09T19:56:23.394Z,13.60
2023-02-09T19:58:52.232Z,11.47
2023-02-09T20:01:20.649Z,12.20
2023-02-09T20:03:49.596Z,11.77
2023-02-09T20:06:17.994Z,11.67
2023-02-09T20:08:47.258Z,14.10
2023-02-09T20:11:19.106Z,15.80
2023-02-09T20:13:49.822Z,12.20
2023-02-09T20:16:20.139Z,12.67
2023-02-09T20:18:48.931Z,12.63
2023-02-09T20:21:17.979Z,11.80
2023-02-09T20:23:47.907Z,12.53
2023-02-09T20:26:18.421Z,11.93
2023-02-09T20:28:46.592Z,10.43
2023-02-09T20:31:18.675Z,12.73
2023-02-09T20:33:46.611Z,16.23
2023-02-09T20:36:14.856Z,12.57
2023-02-09T20:38:42.816Z,12.93
2023-02-09T20:41:14.965Z,11.17
2023-02-09T20:44:00.528Z,11.03
2023-02-09T20:46:56.698Z,12.10
2023-02-09T20:49:29.481Z,10.87
2023-02-09T20:51:57.584Z,12.00
2023-02-09T20:54:25.856Z,11.63
2023-02-09T20:56:55.188Z,18.40
2023-02-09T20:59:23.150Z,15.47
2023-02-09T21:01:51.141Z,11.53
2023-02-09T21:04:19.313Z,13.53
2023-02-09T21:06:47.365Z,11.63
2023-02-09T21:09:16.654Z,11.17
2023-02-09T21:11:44.615Z,11.20
2023-02-09T21:14:22.094Z,12.57
2023-02-09T21:17:00.736Z,11.53
2023-02-09T21:19:28.742Z,11.13
2023-02-09T21:21:56.652Z,11.10
2023-02-09T21:24:24.607Z,11.67
2023-02-09T21:26:52.794Z,11.07
2023-02-09T21:29:22.110Z,12.20
2023-02-09T21:31:51.236Z,12.57
2023-02-09T21:34:19.286Z,11.73
2023-02-09T21:36:47.221Z,10.17
2023-02-09T21:39:15.273Z,11.77
2023-02-09T21:42:00.831Z,12.20
2023-02-09T21:44:30.384Z,11.83
2023-02-09T21:46:58.286Z,12.10
2023-02-09T21:49:26.210Z,12.40
2023-02-09T21:51:54.181Z,12.27
2023-02-09T21:54:22.148Z,11.87
2023-02-09T21:56:50.072Z,13.20
2023-02-09T21:59:18.371Z,12.50
2023-02-09T22:01:47.607Z,13.40
2023-02-09T22:04:15.609Z,12.13
2023-02-09T22:06:43.596Z,12.80
2023-02-09T22:09:11.550Z,11.50
2023-02-09T22:11:39.523Z,13.03
2023-02-09T22:14:07.477Z,12.63
2023-02-09T22:16:35.507Z,12.93
2023-02-09T22:19:04.870Z,13.07
2023-02-09T22:21:32.926Z,12.17
2023-02-09T22:24:00.860Z,11.37
2023-02-09T22:26:28.911Z,12.57
2023-02-09T22:28:56.923Z,11.40
2023-02-09T22:31:24.914Z,12.33
2023-02-09T22:33:54.924Z,11.10
2023-02-09T22:36:24.366Z,11.93
2023-02-09T22:38:52.464Z,11.97
2023-02-09T22:41:24.806Z,11.70
2023-02-09T22:43:54.367Z,10.67
2023-02-09T22:46:23.868Z,10.00
2023-02-09T22:48:52.635Z,10.97
2023-02-09T22:51:20.817Z,10.90
2023-02-09T22:53:50.068Z,11.13
2023-02-09T22:56:18.269Z,10.20
2023-02-09T22:58:46.227Z,11.13
2023-02-09T23:01:14.404Z,10.13
2023-02-09T23:03:42.589Z,9.37
2023-02-09T23:06:14.007Z,9.83
2023-02-09T23:08:42.084Z,10.30
2023-02-09T23:11:12.740Z,10.43
2023-02-09T23:13:41.422Z,8.93
2023-02-09T23:16:11.751Z,9.67
2023-02-09T23:18:40.804Z,9.50
2023-02-09T23:21:09.339Z,10.00
2023-02-09T23:23:37.307Z,10.77
2023-02-09T23:26:05.246Z,9.87
2023-02-09T23:28:34.711Z,10.03
2023-02-09T23:31:05.815Z,8.87
2023-02-09T23:33:34.623Z,9.60
2023-02-09T23:36:05.029Z,9.43
2023-02-09T23:38:33.018Z,9.20
2023-02-09T23:41:00.963Z,9.80
2023-02-09T23:43:28.972Z,8.67
2023-02-09T23:46:01.563Z,9.40
2023-02-09T23:48:29.738Z,8.73
2023-02-09T23:51:00.505Z,7.43
2023-02-09T23:53:28.861Z,8.80
2023-02-09T23:56:03.609Z,8.50
2023-02-09T23:58:31.999Z,8.77
